sensor_id;sensor_type;location;lat;lon;timestamp;pressure;altitude;pressure_sealevel;temperature;humidity
62632;BME280;48703;51.248;-0.546;2023-07-22T00:00:27;100821;;;14.65;71.81
62632;BME280;48703;51.248;-0.546;2023-07-22T00:03:28;100818;;;14.62;72.03
62632;BME280;48703;51.248;-0.546;2023-07-22T00:06:30;100818;;;14.58;72.11
62632;BME280;48703;51.248;-0.546;2023-07-22T00:09:32;100820;;;14.57;72.01
62632;BME280;48703;51.248;-0.546;2023-07-22T00:12:34;100819;;;14.55;71.95
62632;BME280;48703;51.248;-0.546;2023-07-22T00:15:36;100818;;;14.53;71.98
62632;BME280;48703;51.248;-0.546;2023-07-22T00:18:38;100818;;;14.53;72.05
62632;BME280;48703;51.248;-0.546;2023-07-22T00:21:40;100816;;;14.52;72.04
62632;BME280;48703;51.248;-0.546;2023-07-22T00:24:42;100815;;;14.51;72.34
62632;BME280;48703;51.248;-0.546;2023-07-22T00:27:43;100809;;;14.48;72.12
62632;BME280;48703;51.248;-0.546;2023-07-22T00:30:45;100804;;;14.45;72.54
62632;BME280;48703;51.248;-0.546;2023-07-22T00:33:47;100797;;;14.39;73.17
62632;BME280;48703;51.248;-0.546;2023-07-22T00:36:49;100790;;;14.37;72.79
62632;BME280;48703;51.248;-0.546;2023-07-22T00:39:51;100785;;;14.36;72.81
62632;BME280;48703;51.248;-0.546;2023-07-22T00:42:53;100783;;;14.32;72.98
62632;BME280;48703;51.248;-0.546;2023-07-22T00:45:55;100780;;;14.32;72.67
62632;BME280;48703;51.248;-0.546;2023-07-22T00:48:57;100777;;;14.30;72.66
62632;BME280;48703;51.248;-0.546;2023-07-22T00:52:00;100775;;;14.29;72.74
62632;BME280;48703;51.248;-0.546;2023-07-22T00:55:00;100776;;;14.28;73.02
62632;BME280;48703;51.248;-0.546;2023-07-22T00:58:02;100770;;;14.23;73.42
62632;BME280;48703;51.248;-0.546;2023-07-22T01:01:04;100768;;;14.15;74.10
62632;BME280;48703;51.248;-0.546;2023-07-22T01:04:06;100766;;;14.15;73.43
62632;BME280;48703;51.248;-0.546;2023-07-22T01:07:08;100763;;;14.13;73.72
62632;BME280;48703;51.248;-0.546;2023-07-22T01:10:10;100762;;;14.13;73.33
62632;BME280;48703;51.248;-0.546;2023-07-22T01:13:12;100761;;;14.12;73.65
62632;BME280;48703;51.248;-0.546;2023-07-22T01:16:13;100761;;;14.12;73.83
62632;BME280;48703;51.248;-0.546;2023-07-22T01:19:15;100758;;;14.08;73.96
62632;BME280;48703;51.248;-0.546;2023-07-22T01:22:17;100755;;;14.07;74.03
62632;BME280;48703;51.248;-0.546;2023-07-22T01:25:19;100748;;;14.07;74.48
62632;BME280;48703;51.248;-0.546;2023-07-22T01:28:21;100743;;;14.03;74.55
62632;BME280;48703;51.248;-0.546;2023-07-22T01:31:23;100743;;;14.04;74.35
62632;BME280;48703;51.248;-0.546;2023-07-22T01:34:25;100739;;;14.05;74.25
62632;BME280;48703;51.248;-0.546;2023-07-22T01:37:27;100741;;;14.04;74.48
62632;BME280;48703;51.248;-0.546;2023-07-22T01:40:28;100737;;;14.04;74.17
62632;BME280;48703;51.248;-0.546;2023-07-22T01:43:30;100737;;;14.03;75.12
62632;BME280;48703;51.248;-0.546;2023-07-22T01:46:32;100735;;;14.02;75.21
62632;BME280;48703;51.248;-0.546;2023-07-22T01:49:34;100732;;;13.98;74.87
62632;BME280;48703;51.248;-0.546;2023-07-22T01:52:36;100731;;;13.96;74.88
62632;BME280;48703;51.248;-0.546;2023-07-22T01:55:38;100731;;;13.95;75.42
62632;BME280;48703;51.248;-0.546;2023-07-22T01:58:40;100731;;;13.94;74.60
62632;BME280;48703;51.248;-0.546;2023-07-22T02:01:41;100730;;;13.89;74.93
62632;BME280;48703;51.248;-0.546;2023-07-22T02:04:43;100728;;;13.85;75.26
62632;BME280;48703;51.248;-0.546;2023-07-22T02:07:45;100725;;;13.85;75.34
62632;BME280;48703;51.248;-0.546;2023-07-22T02:10:47;100719;;;13.82;75.23
62632;BME280;48703;51.248;-0.546;2023-07-22T02:13:49;100717;;;13.81;75.30
62632;BME280;48703;51.248;-0.546;2023-07-22T02:16:51;100718;;;13.79;75.44
62632;BME280;48703;51.248;-0.546;2023-07-22T02:19:53;100717;;;13.79;75.89
62632;BME280;48703;51.248;-0.546;2023-07-22T02:22:55;100712;;;13.78;76.18
62632;BME280;48703;51.248;-0.546;2023-07-22T02:25:56;100705;;;13.75;75.60
62632;BME280;48703;51.248;-0.546;2023-07-22T02:28:58;100703;;;13.76;76.21
62632;BME280;48703;51.248;-0.546;2023-07-22T02:32:00;100699;;;13.74;76.34
62632;BME280;48703;51.248;-0.546;2023-07-22T02:35:02;100698;;;13.73;75.42
62632;BME280;48703;51.248;-0.546;2023-07-22T02:38:04;100696;;;13.73;75.40
62632;BME280;48703;51.248;-0.546;2023-07-22T02:41:06;100697;;;13.71;75.64
62632;BME280;48703;51.248;-0.546;2023-07-22T02:44:08;100697;;;13.69;75.51
62632;BME280;48703;51.248;-0.546;2023-07-22T02:47:10;100695;;;13.69;75.62
62632;BME280;48703;51.248;-0.546;2023-07-22T02:50:11;100695;;;13.70;75.52
62632;BME280;48703;51.248;-0.546;2023-07-22T02:53:13;100692;;;13.69;76.41
62632;BME280;48703;51.248;-0.546;2023-07-22T02:56:15;100694;;;13.66;76.43
62632;BME280;48703;51.248;-0.546;2023-07-22T02:59:17;100696;;;13.64;76.75
62632;BME280;48703;51.248;-0.546;2023-07-22T03:02:19;100696;;;13.63;77.40
62632;BME280;48703;51.248;-0.546;2023-07-22T03:05:21;100694;;;13.61;77.16
62632;BME280;48703;51.248;-0.546;2023-07-22T03:08:23;100694;;;13.59;76.98
62632;BME280;48703;51.248;-0.546;2023-07-22T03:11:25;100691;;;13.60;77.10
62632;BME280;48703;51.248;-0.546;2023-07-22T03:14:26;100690;;;13.60;77.10
62632;BME280;48703;51.248;-0.546;2023-07-22T03:17:28;100687;;;13.58;77.04
62632;BME280;48703;51.248;-0.546;2023-07-22T03:20:30;100690;;;13.57;77.02
62632;BME280;48703;51.248;-0.546;2023-07-22T03:23:32;100695;;;13.57;77.12
62632;BME280;48703;51.248;-0.546;2023-07-22T03:26:34;100692;;;13.57;76.71
62632;BME280;48703;51.248;-0.546;2023-07-22T03:29:36;100692;;;13.59;76.78
62632;BME280;48703;51.248;-0.546;2023-07-22T03:32:38;100692;;;13.55;77.33
62632;BME280;48703;51.248;-0.546;2023-07-22T03:35:40;100693;;;13.53;76.91
62632;BME280;48703;51.248;-0.546;2023-07-22T03:38:41;100692;;;13.54;76.69
62632;BME280;48703;51.248;-0.546;2023-07-22T03:41:43;100692;;;13.54;76.63
62632;BME280;48703;51.248;-0.546;2023-07-22T03:44:45;100685;;;13.54;76.36
62632;BME280;48703;51.248;-0.546;2023-07-22T03:47:50;100683;;;13.52;77.01
62632;BME280;48703;51.248;-0.546;2023-07-22T03:50:49;100685;;;13.50;77.01
62632;BME280;48703;51.248;-0.546;2023-07-22T03:53:51;100682;;;13.50;76.92
62632;BME280;48703;51.248;-0.546;2023-07-22T03:56:53;100677;;;13.48;77.16
62632;BME280;48703;51.248;-0.546;2023-07-22T03:59:55;100671;;;13.47;77.55
62632;BME280;48703;51.248;-0.546;2023-07-22T04:02:56;100669;;;13.47;78.33
62632;BME280;48703;51.248;-0.546;2023-07-22T04:05:58;100667;;;13.47;77.74
62632;BME280;48703;51.248;-0.546;2023-07-22T04:09:00;100666;;;13.46;77.83
62632;BME280;48703;51.248;-0.546;2023-07-22T04:12:02;100667;;;13.49;78.29
62632;BME280;48703;51.248;-0.546;2023-07-22T04:15:04;100665;;;13.47;77.95
62632;BME280;48703;51.248;-0.546;2023-07-22T04:18:06;100668;;;13.46;79.10
62632;BME280;48703;51.248;-0.546;2023-07-22T04:21:08;100665;;;13.48;78.23
62632;BME280;48703;51.248;-0.546;2023-07-22T04:24:09;100663;;;13.51;78.50
62632;BME280;48703;51.248;-0.546;2023-07-22T04:27:11;100657;;;13.54;77.81
62632;BME280;48703;51.248;-0.546;2023-07-22T04:30:13;100659;;;13.57;78.46
62632;BME280;48703;51.248;-0.546;2023-07-22T04:33:15;100656;;;13.59;79.22
62632;BME280;48703;51.248;-0.546;2023-07-22T04:36:17;100654;;;13.60;78.70
62632;BME280;48703;51.248;-0.546;2023-07-22T04:39:19;100656;;;13.63;79.78
62632;BME280;48703;51.248;-0.546;2023-07-22T04:42:21;100658;;;13.63;79.79
62632;BME280;48703;51.248;-0.546;2023-07-22T04:45:23;100660;;;13.64;78.80
62632;BME280;48703;51.248;-0.546;2023-07-22T04:48:25;100655;;;13.67;78.00
62632;BME280;48703;51.248;-0.546;2023-07-22T04:51:26;100653;;;13.69;78.31
62632;BME280;48703;51.248;-0.546;2023-07-22T04:54:28;100653;;;13.72;78.26
62632;BME280;48703;51.248;-0.546;2023-07-22T04:57:30;100650;;;13.74;77.37
62632;BME280;48703;51.248;-0.546;2023-07-22T05:00:32;100644;;;13.78;77.59
62632;BME280;48703;51.248;-0.546;2023-07-22T05:03:34;100643;;;13.81;77.51
62632;BME280;48703;51.248;-0.546;2023-07-22T05:06:36;100639;;;13.83;77.65
62632;BME280;48703;51.248;-0.546;2023-07-22T05:09:38;100636;;;13.87;77.26
62632;BME280;48703;51.248;-0.546;2023-07-22T05:12:39;100636;;;13.89;77.14
62632;BME280;48703;51.248;-0.546;2023-07-22T05:15:41;100641;;;13.89;77.18
62632;BME280;48703;51.248;-0.546;2023-07-22T05:18:43;100640;;;13.89;77.01
62632;BME280;48703;51.248;-0.546;2023-07-22T05:21:45;100640;;;13.88;77.51
62632;BME280;48703;51.248;-0.546;2023-07-22T05:24:47;100637;;;13.87;78.17
62632;BME280;48703;51.248;-0.546;2023-07-22T05:27:49;100632;;;13.85;79.65
62632;BME280;48703;51.248;-0.546;2023-07-22T05:30:51;100637;;;13.84;78.91
62632;BME280;48703;51.248;-0.546;2023-07-22T05:33:53;100634;;;13.86;78.84
62632;BME280;48703;51.248;-0.546;2023-07-22T05:36:54;100636;;;13.88;78.51
62632;BME280;48703;51.248;-0.546;2023-07-22T05:39:56;100638;;;13.90;78.48
62632;BME280;48703;51.248;-0.546;2023-07-22T05:42:58;100636;;;13.92;78.87
62632;BME280;48703;51.248;-0.546;2023-07-22T05:46:00;100638;;;13.94;78.49
62632;BME280;48703;51.248;-0.546;2023-07-22T05:49:02;100637;;;13.97;78.31
62632;BME280;48703;51.248;-0.546;2023-07-22T05:52:04;100636;;;13.99;78.83
62632;BME280;48703;51.248;-0.546;2023-07-22T05:55:06;100634;;;14.00;78.84
62632;BME280;48703;51.248;-0.546;2023-07-22T05:58:14;100631;;;14.01;78.42
62632;BME280;48703;51.248;-0.546;2023-07-22T06:01:10;100626;;;14.02;78.64
62632;BME280;48703;51.248;-0.546;2023-07-22T06:04:11;100627;;;14.04;78.40
62632;BME280;48703;51.248;-0.546;2023-07-22T06:07:13;100626;;;14.06;78.78
62632;BME280;48703;51.248;-0.546;2023-07-22T06:10:15;100630;;;14.08;78.72
62632;BME280;48703;51.248;-0.546;2023-07-22T06:13:17;100630;;;14.11;79.02
62632;BME280;48703;51.248;-0.546;2023-07-22T06:16:19;100628;;;14.14;79.35
62632;BME280;48703;51.248;-0.546;2023-07-22T06:19:21;100622;;;14.17;79.84
62632;BME280;48703;51.248;-0.546;2023-07-22T06:22:22;100617;;;14.20;78.90
62632;BME280;48703;51.248;-0.546;2023-07-22T06:25:24;100613;;;14.24;79.25
62632;BME280;48703;51.248;-0.546;2023-07-22T06:28:26;100614;;;14.29;79.43
62632;BME280;48703;51.248;-0.546;2023-07-22T06:31:28;100613;;;14.32;79.87
62632;BME280;48703;51.248;-0.546;2023-07-22T06:34:30;100610;;;14.37;79.64
62632;BME280;48703;51.248;-0.546;2023-07-22T06:37:32;100608;;;14.42;79.65
62632;BME280;48703;51.248;-0.546;2023-07-22T06:40:34;100607;;;14.49;78.92
62632;BME280;48703;51.248;-0.546;2023-07-22T06:43:36;100611;;;14.56;79.33
62632;BME280;48703;51.248;-0.546;2023-07-22T06:46:37;100613;;;14.61;79.08
62632;BME280;48703;51.248;-0.546;2023-07-22T06:49:39;100615;;;14.67;79.10
62632;BME280;48703;51.248;-0.546;2023-07-22T06:52:41;100613;;;14.73;79.29
62632;BME280;48703;51.248;-0.546;2023-07-22T06:55:48;100610;;;14.78;79.07
62632;BME280;48703;51.248;-0.546;2023-07-22T06:58:45;100602;;;14.83;79.09
62632;BME280;48703;51.248;-0.546;2023-07-22T07:01:47;100598;;;14.87;79.76
62632;BME280;48703;51.248;-0.546;2023-07-22T07:04:49;100600;;;14.92;79.02
62632;BME280;48703;51.248;-0.546;2023-07-22T07:07:51;100606;;;14.99;79.33
62632;BME280;48703;51.248;-0.546;2023-07-22T07:10:52;100613;;;15.05;79.23
62632;BME280;48703;51.248;-0.546;2023-07-22T07:13:54;100609;;;15.11;79.17
62632;BME280;48703;51.248;-0.546;2023-07-22T07:16:56;100605;;;15.15;79.00
62632;BME280;48703;51.248;-0.546;2023-07-22T07:19:58;100598;;;15.21;79.31
62632;BME280;48703;51.248;-0.546;2023-07-22T07:23:00;100596;;;15.28;78.76
62632;BME280;48703;51.248;-0.546;2023-07-22T07:26:02;100597;;;15.36;78.71
62632;BME280;48703;51.248;-0.546;2023-07-22T07:29:04;100597;;;15.45;77.89
62632;BME280;48703;51.248;-0.546;2023-07-22T07:32:06;100597;;;15.55;78.07
62632;BME280;48703;51.248;-0.546;2023-07-22T07:35:08;100592;;;15.66;77.36
62632;BME280;48703;51.248;-0.546;2023-07-22T07:38:09;100590;;;15.80;76.62
62632;BME280;48703;51.248;-0.546;2023-07-22T07:41:11;100589;;;15.93;75.43
62632;BME280;48703;51.248;-0.546;2023-07-22T07:44:13;100585;;;16.01;75.39
62632;BME280;48703;51.248;-0.546;2023-07-22T07:47:15;100586;;;16.11;74.63
62632;BME280;48703;51.248;-0.546;2023-07-22T07:50:17;100582;;;16.19;73.39
62632;BME280;48703;51.248;-0.546;2023-07-22T07:53:19;100581;;;16.25;73.00
62632;BME280;48703;51.248;-0.546;2023-07-22T07:56:21;100580;;;16.29;72.85
62632;BME280;48703;51.248;-0.546;2023-07-22T07:59:22;100577;;;16.35;72.59
62632;BME280;48703;51.248;-0.546;2023-07-22T08:02:24;100575;;;16.41;72.06
62632;BME280;48703;51.248;-0.546;2023-07-22T08:05:26;100571;;;16.51;72.50
62632;BME280;48703;51.248;-0.546;2023-07-22T08:08:28;100576;;;16.62;72.52
62632;BME280;48703;51.248;-0.546;2023-07-22T08:11:30;100576;;;16.71;72.06
62632;BME280;48703;51.248;-0.546;2023-07-22T08:14:32;100570;;;16.79;71.20
62632;BME280;48703;51.248;-0.546;2023-07-22T08:17:34;100567;;;16.83;71.54
62632;BME280;48703;51.248;-0.546;2023-07-22T08:20:36;100566;;;16.89;71.18
62632;BME280;48703;51.248;-0.546;2023-07-22T08:23:37;100562;;;16.93;71.15
62632;BME280;48703;51.248;-0.546;2023-07-22T08:26:39;100556;;;16.94;70.14
62632;BME280;48703;51.248;-0.546;2023-07-22T08:29:41;100564;;;16.92;70.43
62632;BME280;48703;51.248;-0.546;2023-07-22T08:32:43;100562;;;16.91;70.22
62632;BME280;48703;51.248;-0.546;2023-07-22T08:35:45;100567;;;16.91;70.43
62632;BME280;48703;51.248;-0.546;2023-07-22T08:38:47;100563;;;16.90;70.41
62632;BME280;48703;51.248;-0.546;2023-07-22T08:41:49;100570;;;16.89;70.41
62632;BME280;48703;51.248;-0.546;2023-07-22T08:44:51;100567;;;16.89;71.36
62632;BME280;48703;51.248;-0.546;2023-07-22T08:47:52;100568;;;16.89;71.83
62632;BME280;48703;51.248;-0.546;2023-07-22T08:50:55;100564;;;16.91;72.05
62632;BME280;48703;51.248;-0.546;2023-07-22T08:53:56;100557;;;16.91;72.14
62632;BME280;48703;51.248;-0.546;2023-07-22T08:56:58;100557;;;16.95;72.61
62632;BME280;48703;51.248;-0.546;2023-07-22T09:00:00;100556;;;16.99;72.60
62632;BME280;48703;51.248;-0.546;2023-07-22T09:03:02;100552;;;17.03;72.48
62632;BME280;48703;51.248;-0.546;2023-07-22T09:06:04;100555;;;17.06;72.29
62632;BME280;48703;51.248;-0.546;2023-07-22T09:09:05;100555;;;17.08;72.58
62632;BME280;48703;51.248;-0.546;2023-07-22T09:12:07;100554;;;17.14;72.66
62632;BME280;48703;51.248;-0.546;2023-07-22T09:15:10;100555;;;17.18;72.56
62632;BME280;48703;51.248;-0.546;2023-07-22T09:18:11;100550;;;17.24;72.56
62632;BME280;48703;51.248;-0.546;2023-07-22T09:21:13;100548;;;17.27;72.31
62632;BME280;48703;51.248;-0.546;2023-07-22T09:24:23;100548;;;17.33;72.65
62632;BME280;48703;51.248;-0.546;2023-07-22T09:27:17;100546;;;17.37;72.32
62632;BME280;48703;51.248;-0.546;2023-07-22T09:30:20;100542;;;17.44;72.54
62632;BME280;48703;51.248;-0.546;2023-07-22T09:33:21;100535;;;17.57;72.91
62632;BME280;48703;51.248;-0.546;2023-07-22T09:36:22;100533;;;17.68;72.11
62632;BME280;48703;51.248;-0.546;2023-07-22T09:39:24;100532;;;17.69;71.59
62632;BME280;48703;51.248;-0.546;2023-07-22T09:42:26;100527;;;17.66;70.59
62632;BME280;48703;51.248;-0.546;2023-07-22T09:45:28;100529;;;17.62;70.66
62632;BME280;48703;51.248;-0.546;2023-07-22T09:48:30;100526;;;17.57;69.81
62632;BME280;48703;51.248;-0.546;2023-07-22T09:51:33;100523;;;17.56;69.42
62632;BME280;48703;51.248;-0.546;2023-07-22T09:54:34;100525;;;17.60;69.31
62632;BME280;48703;51.248;-0.546;2023-07-22T09:57:35;100523;;;17.64;68.82
62632;BME280;48703;51.248;-0.546;2023-07-22T10:00:37;100529;;;17.69;67.55
62632;BME280;48703;51.248;-0.546;2023-07-22T10:03:39;100529;;;17.72;66.80
62632;BME280;48703;51.248;-0.546;2023-07-22T10:06:41;100529;;;17.75;66.99
62632;BME280;48703;51.248;-0.546;2023-07-22T10:09:43;100528;;;17.81;66.65
62632;BME280;48703;51.248;-0.546;2023-07-22T10:12:45;100528;;;17.83;66.53
62632;BME280;48703;51.248;-0.546;2023-07-22T10:15:47;100525;;;17.89;66.75
62632;BME280;48703;51.248;-0.546;2023-07-22T10:18:49;100523;;;17.95;65.47
62632;BME280;48703;51.248;-0.546;2023-07-22T10:21:50;100526;;;17.97;64.24
62632;BME280;48703;51.248;-0.546;2023-07-22T10:24:52;100523;;;17.97;63.97
62632;BME280;48703;51.248;-0.546;2023-07-22T10:27:54;100521;;;17.98;64.03
62632;BME280;48703;51.248;-0.546;2023-07-22T10:30:56;100522;;;18.04;63.86
62632;BME280;48703;51.248;-0.546;2023-07-22T10:33:58;100521;;;18.08;63.83
62632;BME280;48703;51.248;-0.546;2023-07-22T10:37:00;100519;;;18.10;63.97
62632;BME280;48703;51.248;-0.546;2023-07-22T10:40:15;100519;;;18.17;64.68
62632;BME280;48703;51.248;-0.546;2023-07-22T10:43:04;100513;;;18.26;63.87
62632;BME280;48703;51.248;-0.546;2023-07-22T10:46:06;100514;;;18.29;63.42
62632;BME280;48703;51.248;-0.546;2023-07-22T10:49:10;100512;;;18.29;63.08
62632;BME280;48703;51.248;-0.546;2023-07-22T10:52:10;100513;;;18.29;62.76
62632;BME280;48703;51.248;-0.546;2023-07-22T10:55:15;100514;;;18.30;63.13
62632;BME280;48703;51.248;-0.546;2023-07-22T10:58:13;100515;;;18.28;62.77
62632;BME280;48703;51.248;-0.546;2023-07-22T11:01:23;100518;;;18.24;63.62
62632;BME280;48703;51.248;-0.546;2023-07-22T11:04:22;100520;;;18.19;63.66
62632;BME280;48703;51.248;-0.546;2023-07-22T11:07:29;100519;;;18.11;64.61
62632;BME280;48703;51.248;-0.546;2023-07-22T11:09:38;100520;;;18.08;65.68
62632;BME280;48703;51.248;-0.546;2023-07-22T11:12:24;100518;;;17.97;66.94
62632;BME280;48703;51.248;-0.546;2023-07-22T11:15:29;100519;;;17.87;68.23
62632;BME280;48703;51.248;-0.546;2023-07-22T11:18:36;100521;;;17.80;69.71
62632;BME280;48703;51.248;-0.546;2023-07-22T11:21:27;100519;;;17.69;70.65
62632;BME280;48703;51.248;-0.546;2023-07-22T11:24:29;100518;;;17.61;72.69
62632;BME280;48703;51.248;-0.546;2023-07-22T11:27:31;100519;;;17.48;72.73
62632;BME280;48703;51.248;-0.546;2023-07-22T11:30:33;100517;;;17.37;73.95
62632;BME280;48703;51.248;-0.546;2023-07-22T11:33:38;100511;;;17.23;74.73
62632;BME280;48703;51.248;-0.546;2023-07-22T11:36:37;100512;;;17.15;75.08
62632;BME280;48703;51.248;-0.546;2023-07-22T11:39:38;100510;;;17.07;77.34
62632;BME280;48703;51.248;-0.546;2023-07-22T11:42:40;100509;;;16.97;78.06
62632;BME280;48703;51.248;-0.546;2023-07-22T11:45:42;100503;;;16.89;78.96
62632;BME280;48703;51.248;-0.546;2023-07-22T11:48:52;100498;;;16.86;79.21
62632;BME280;48703;51.248;-0.546;2023-07-22T11:51:46;100495;;;16.81;80.63
62632;BME280;48703;51.248;-0.546;2023-07-22T11:54:48;100492;;;16.78;80.02
62632;BME280;48703;51.248;-0.546;2023-07-22T11:57:52;100488;;;16.77;80.39
62632;BME280;48703;51.248;-0.546;2023-07-22T12:01:01;100481;;;16.75;81.47
62632;BME280;48703;51.248;-0.546;2023-07-22T12:03:55;100476;;;16.69;81.42
62632;BME280;48703;51.248;-0.546;2023-07-22T12:06:55;100473;;;16.65;82.20
62632;BME280;48703;51.248;-0.546;2023-07-22T12:09:58;100466;;;16.62;82.26
62632;BME280;48703;51.248;-0.546;2023-07-22T12:13:00;100463;;;16.60;81.49
62632;BME280;48703;51.248;-0.546;2023-07-22T12:16:01;100459;;;16.55;82.39
62632;BME280;48703;51.248;-0.546;2023-07-22T12:19:03;100454;;;16.51;82.75
62632;BME280;48703;51.248;-0.546;2023-07-22T12:22:05;100453;;;16.48;83.03
62632;BME280;48703;51.248;-0.546;2023-07-22T12:25:07;100447;;;16.48;82.87
62632;BME280;48703;51.248;-0.546;2023-07-22T12:28:08;100443;;;16.44;83.50
62632;BME280;48703;51.248;-0.546;2023-07-22T12:31:10;100437;;;16.39;83.47
62632;BME280;48703;51.248;-0.546;2023-07-22T12:34:12;100434;;;16.38;83.01
62632;BME280;48703;51.248;-0.546;2023-07-22T12:37:14;100432;;;16.35;83.21
62632;BME280;48703;51.248;-0.546;2023-07-22T12:40:16;100426;;;16.34;83.44
62632;BME280;48703;51.248;-0.546;2023-07-22T12:43:18;100426;;;16.33;83.43
62632;BME280;48703;51.248;-0.546;2023-07-22T12:46:20;100424;;;16.33;83.36
62632;BME280;48703;51.248;-0.546;2023-07-22T12:49:22;100421;;;16.35;83.43
62632;BME280;48703;51.248;-0.546;2023-07-22T12:52:23;100420;;;16.36;84.07
62632;BME280;48703;51.248;-0.546;2023-07-22T12:55:25;100416;;;16.35;84.20
62632;BME280;48703;51.248;-0.546;2023-07-22T12:58:27;100412;;;16.34;84.63
62632;BME280;48703;51.248;-0.546;2023-07-22T13:01:29;100413;;;16.30;84.05
62632;BME280;48703;51.248;-0.546;2023-07-22T13:04:31;100407;;;16.26;85.27
62632;BME280;48703;51.248;-0.546;2023-07-22T13:07:33;100407;;;16.28;86.57
62632;BME280;48703;51.248;-0.546;2023-07-22T13:10:35;100408;;;16.32;85.38
62632;BME280;48703;51.248;-0.546;2023-07-22T13:13:36;100402;;;16.36;84.58
62632;BME280;48703;51.248;-0.546;2023-07-22T13:16:38;100401;;;16.40;85.64
62632;BME280;48703;51.248;-0.546;2023-07-22T13:19:40;100393;;;16.45;86.00
62632;BME280;48703;51.248;-0.546;2023-07-22T13:22:42;100387;;;16.50;85.74
62632;BME280;48703;51.248;-0.546;2023-07-22T13:25:44;100385;;;16.54;84.85
62632;BME280;48703;51.248;-0.546;2023-07-22T13:28:46;100384;;;16.52;84.35
62632;BME280;48703;51.248;-0.546;2023-07-22T13:31:48;100382;;;16.49;84.07
62632;BME280;48703;51.248;-0.546;2023-07-22T13:34:50;100380;;;16.51;84.77
62632;BME280;48703;51.248;-0.546;2023-07-22T13:37:51;100378;;;16.52;84.99
62632;BME280;48703;51.248;-0.546;2023-07-22T13:40:53;100377;;;16.50;85.43
62632;BME280;48703;51.248;-0.546;2023-07-22T13:43:55;100380;;;16.47;84.57
62632;BME280;48703;51.248;-0.546;2023-07-22T13:46:57;100380;;;16.45;85.18
62632;BME280;48703;51.248;-0.546;2023-07-22T13:49:59;100371;;;16.45;85.90
62632;BME280;48703;51.248;-0.546;2023-07-22T13:53:01;100363;;;16.39;85.43
62632;BME280;48703;51.248;-0.546;2023-07-22T13:56:03;100361;;;16.40;84.78
62632;BME280;48703;51.248;-0.546;2023-07-22T13:59:05;100359;;;16.41;84.69
62632;BME280;48703;51.248;-0.546;2023-07-22T14:02:06;100353;;;16.40;85.07
62632;BME280;48703;51.248;-0.546;2023-07-22T14:05:08;100357;;;16.39;84.74
62632;BME280;48703;51.248;-0.546;2023-07-22T14:08:10;100349;;;16.36;84.54
62632;BME280;48703;51.248;-0.546;2023-07-22T14:11:12;100346;;;16.37;84.37
62632;BME280;48703;51.248;-0.546;2023-07-22T14:14:14;100343;;;16.37;85.12
62632;BME280;48703;51.248;-0.546;2023-07-22T14:17:16;100339;;;16.33;85.36
62632;BME280;48703;51.248;-0.546;2023-07-22T14:20:18;100335;;;16.31;85.06
62632;BME280;48703;51.248;-0.546;2023-07-22T14:23:20;100331;;;16.27;85.26
62632;BME280;48703;51.248;-0.546;2023-07-22T14:26:21;100329;;;16.27;85.88
62632;BME280;48703;51.248;-0.546;2023-07-22T14:29:23;100330;;;16.28;85.51
62632;BME280;48703;51.248;-0.546;2023-07-22T14:32:25;100326;;;16.27;86.27
62632;BME280;48703;51.248;-0.546;2023-07-22T14:35:27;100325;;;16.25;86.33
62632;BME280;48703;51.248;-0.546;2023-07-22T14:38:29;100323;;;16.23;86.32
62632;BME280;48703;51.248;-0.546;2023-07-22T14:41:31;100318;;;16.20;86.54
62632;BME280;48703;51.248;-0.546;2023-07-22T14:44:33;100312;;;16.17;86.22
62632;BME280;48703;51.248;-0.546;2023-07-22T14:47:35;100306;;;16.14;87.43
62632;BME280;48703;51.248;-0.546;2023-07-22T14:50:36;100302;;;16.08;87.98
62632;BME280;48703;51.248;-0.546;2023-07-22T14:53:38;100298;;;16.08;87.82
62632;BME280;48703;51.248;-0.546;2023-07-22T14:56:40;100297;;;16.09;88.08
62632;BME280;48703;51.248;-0.546;2023-07-22T14:59:42;100292;;;16.09;89.05
62632;BME280;48703;51.248;-0.546;2023-07-22T15:02:44;100292;;;16.06;88.59
62632;BME280;48703;51.248;-0.546;2023-07-22T15:05:46;100290;;;16.06;88.64
62632;BME280;48703;51.248;-0.546;2023-07-22T15:08:48;100284;;;16.05;88.48
62632;BME280;48703;51.248;-0.546;2023-07-22T15:11:50;100283;;;16.07;88.73
62632;BME280;48703;51.248;-0.546;2023-07-22T15:14:51;100277;;;16.06;89.37
62632;BME280;48703;51.248;-0.546;2023-07-22T15:17:53;100282;;;16.05;89.42
62632;BME280;48703;51.248;-0.546;2023-07-22T15:20:55;100278;;;16.06;89.66
62632;BME280;48703;51.248;-0.546;2023-07-22T15:23:57;100276;;;16.07;89.25
62632;BME280;48703;51.248;-0.546;2023-07-22T15:26:59;100277;;;16.05;90.43
62632;BME280;48703;51.248;-0.546;2023-07-22T15:30:01;100274;;;16.04;89.92
62632;BME280;48703;51.248;-0.546;2023-07-22T15:33:04;100271;;;16.01;89.56
62632;BME280;48703;51.248;-0.546;2023-07-22T15:36:05;100268;;;16.00;89.40
62632;BME280;48703;51.248;-0.546;2023-07-22T15:39:06;100263;;;15.98;89.26
62632;BME280;48703;51.248;-0.546;2023-07-22T15:42:08;100261;;;15.97;88.85
62632;BME280;48703;51.248;-0.546;2023-07-22T15:45:10;100258;;;15.93;88.91
62632;BME280;48703;51.248;-0.546;2023-07-22T15:48:12;100256;;;15.90;88.85
62632;BME280;48703;51.248;-0.546;2023-07-22T15:51:14;100256;;;15.88;88.80
62632;BME280;48703;51.248;-0.546;2023-07-22T15:54:16;100255;;;15.87;88.95
62632;BME280;48703;51.248;-0.546;2023-07-22T15:57:18;100256;;;15.85;88.92
62632;BME280;48703;51.248;-0.546;2023-07-22T16:00:20;100252;;;15.82;89.17
62632;BME280;48703;51.248;-0.546;2023-07-22T16:03:21;100248;;;15.79;89.44
62632;BME280;48703;51.248;-0.546;2023-07-22T16:06:23;100242;;;15.75;89.76
62632;BME280;48703;51.248;-0.546;2023-07-22T16:09:25;100236;;;15.74;90.06
62632;BME280;48703;51.248;-0.546;2023-07-22T16:12:27;100234;;;15.74;90.37